Terminal Aerodrome Forecast
Issued by NWS

Current Version | Previous Version | Text Only | Print | Product List | Glossary On
Versions: 1 2 3 4 5 6 7 8 9 10 11 12 13 14 15 16 17 18 19 20 21 22 23 24 25 26 27 28 29 30 31 32 33 34 35 36 37 38 39 40 41 42 43 44 45 46 47 48 49 50
000
FTAK31 PANC 231130
TAFACV
TAF
PACV 231130Z 2312/2412 09006KT 5SM -RA BR SCT005 OVC015
      TEMPO 2312/2316 2SM -RA BKN008
     FM231600 09008KT 6SM -RA SCT005 BKN015 OVC025
     FM232100 09010G18KT P6SM -SHRA SCT015 BKN035
     FM240900 09006KT 4SM -RA BR SCT009 OVC025=

USA.gov is the U.S. government's official web portal to all federal, state and local government web resources and services.